sensor_id;sensor_type;location;lat;lon;timestamp;pressure;altitude;pressure_sealevel;temperature;humidity
64139;BME280;50435;43.700;-79.318;2024-01-15T00:00:36;100243.41;;;-4.14;44.93
64139;BME280;50435;43.700;-79.318;2024-01-15T00:03:04;100235.68;;;-3.88;43.98
64139;BME280;50435;43.700;-79.318;2024-01-15T00:05:32;100238.82;;;-3.68;43.15
64139;BME280;50435;43.700;-79.318;2024-01-15T00:08:00;100245.11;;;-3.41;42.00
64139;BME280;50435;43.700;-79.318;2024-01-15T00:10:27;100256.47;;;-4.37;44.63
64139;BME280;50435;43.700;-79.318;2024-01-15T00:12:54;100266.81;;;-4.28;45.11
64139;BME280;50435;43.700;-79.318;2024-01-15T00:15:22;100277.89;;;-4.80;44.63
64139;BME280;50435;43.700;-79.318;2024-01-15T00:17:50;100282.64;;;-4.52;44.98
64139;BME280;50435;43.700;-79.318;2024-01-15T00:20:17;100286.16;;;-4.77;44.96
64139;BME280;50435;43.700;-79.318;2024-01-15T00:22:44;100295.60;;;-4.37;43.95
64139;BME280;50435;43.700;-79.318;2024-01-15T00:25:12;100286.47;;;-3.97;44.99
64139;BME280;50435;43.700;-79.318;2024-01-15T00:27:40;100292.20;;;-4.49;44.54
64139;BME280;50435;43.700;-79.318;2024-01-15T00:30:08;100290.25;;;-3.89;42.21
64139;BME280;50435;43.700;-79.318;2024-01-15T00:32:36;100288.87;;;-3.52;42.05
64139;BME280;50435;43.700;-79.318;2024-01-15T00:35:04;100285.43;;;-3.46;41.93
64139;BME280;50435;43.700;-79.318;2024-01-15T00:37:32;100294.83;;;-3.81;42.09
64139;BME280;50435;43.700;-79.318;2024-01-15T00:40:00;100303.45;;;-3.87;42.14
64139;BME280;50435;43.700;-79.318;2024-01-15T00:42:27;100299.81;;;-4.31;42.17
64139;BME280;50435;43.700;-79.318;2024-01-15T00:44:55;100304.48;;;-4.20;42.74
64139;BME280;50435;43.700;-79.318;2024-01-15T00:47:22;100305.61;;;-4.92;43.22
64139;BME280;50435;43.700;-79.318;2024-01-15T00:49:50;100313.38;;;-4.34;43.77
64139;BME280;50435;43.700;-79.318;2024-01-15T00:52:17;100319.67;;;-4.46;42.85
64139;BME280;50435;43.700;-79.318;2024-01-15T00:54:45;100322.79;;;-4.03;42.33
64139;BME280;50435;43.700;-79.318;2024-01-15T00:57:13;100332.63;;;-4.24;43.55
64139;BME280;50435;43.700;-79.318;2024-01-15T00:59:40;100330.29;;;-4.57;44.11
64139;BME280;50435;43.700;-79.318;2024-01-15T01:02:08;100336.60;;;-4.79;43.60
64139;BME280;50435;43.700;-79.318;2024-01-15T01:04:35;100329.76;;;-4.85;42.69
64139;BME280;50435;43.700;-79.318;2024-01-15T01:07:03;100336.14;;;-4.10;42.62
64139;BME280;50435;43.700;-79.318;2024-01-15T01:09:30;100344.54;;;-4.36;42.26
64139;BME280;50435;43.700;-79.318;2024-01-15T01:11:58;100341.50;;;-4.49;43.20
64139;BME280;50435;43.700;-79.318;2024-01-15T01:14:26;100354.07;;;-4.91;41.97
64139;BME280;50435;43.700;-79.318;2024-01-15T01:16:53;100349.63;;;-4.53;42.63
64139;BME280;50435;43.700;-79.318;2024-01-15T01:19:21;100346.85;;;-4.82;42.39
64139;BME280;50435;43.700;-79.318;2024-01-15T01:21:48;100344.45;;;-4.35;42.57
64139;BME280;50435;43.700;-79.318;2024-01-15T01:24:16;100355.72;;;-4.37;42.22
64139;BME280;50435;43.700;-79.318;2024-01-15T01:26:44;100361.76;;;-4.33;42.61
64139;BME280;50435;43.700;-79.318;2024-01-15T01:29:11;100355.30;;;-4.43;42.51
64139;BME280;50435;43.700;-79.318;2024-01-15T01:31:43;100359.57;;;-4.42;41.78
64139;BME280;50435;43.700;-79.318;2024-01-15T01:34:13;100360.95;;;-4.82;43.17
64139;BME280;50435;43.700;-79.318;2024-01-15T01:36:41;100363.26;;;-4.64;42.02
64139;BME280;50435;43.700;-79.318;2024-01-15T01:39:09;100367.15;;;-4.46;42.52
64139;BME280;50435;43.700;-79.318;2024-01-15T01:41:37;100366.14;;;-4.64;42.48
64139;BME280;50435;43.700;-79.318;2024-01-15T01:44:05;100367.10;;;-4.29;42.50
64139;BME280;50435;43.700;-79.318;2024-01-15T01:46:32;100376.93;;;-4.89;42.63
64139;BME280;50435;43.700;-79.318;2024-01-15T01:49:01;100375.54;;;-4.68;42.57
64139;BME280;50435;43.700;-79.318;2024-01-15T01:51:29;100376.55;;;-4.70;42.57
64139;BME280;50435;43.700;-79.318;2024-01-15T01:53:56;100370.15;;;-4.66;42.04
64139;BME280;50435;43.700;-79.318;2024-01-15T01:56:24;100366.02;;;-4.84;42.35
64139;BME280;50435;43.700;-79.318;2024-01-15T01:58:51;100367.93;;;-4.55;42.95
64139;BME280;50435;43.700;-79.318;2024-01-15T02:01:19;100370.67;;;-5.28;42.62
64139;BME280;50435;43.700;-79.318;2024-01-15T02:03:46;100371.32;;;-4.66;42.23
64139;BME280;50435;43.700;-79.318;2024-01-15T02:06:14;100365.55;;;-4.51;42.12
64139;BME280;50435;43.700;-79.318;2024-01-15T02:08:43;100367.16;;;-4.31;42.22
64139;BME280;50435;43.700;-79.318;2024-01-15T02:11:11;100371.91;;;-4.62;42.48
64139;BME280;50435;43.700;-79.318;2024-01-15T02:13:39;100374.53;;;-4.63;42.49
64139;BME280;50435;43.700;-79.318;2024-01-15T02:16:07;100374.79;;;-4.78;42.57
64139;BME280;50435;43.700;-79.318;2024-01-15T02:18:42;100377.62;;;-4.76;42.57
64139;BME280;50435;43.700;-79.318;2024-01-15T02:21:10;100380.12;;;-4.92;42.58
64139;BME280;50435;43.700;-79.318;2024-01-15T02:23:39;100383.82;;;-4.69;42.41
64139;BME280;50435;43.700;-79.318;2024-01-15T02:26:07;100391.72;;;-4.79;42.01
64139;BME280;50435;43.700;-79.318;2024-01-15T02:28:35;100381.60;;;-5.03;42.45
64139;BME280;50435;43.700;-79.318;2024-01-15T02:31:03;100381.00;;;-4.65;42.77
64139;BME280;50435;43.700;-79.318;2024-01-15T02:33:31;100378.52;;;-5.28;42.45
64139;BME280;50435;43.700;-79.318;2024-01-15T02:35:59;100378.89;;;-5.31;42.68
64139;BME280;50435;43.700;-79.318;2024-01-15T02:38:27;100383.62;;;-5.67;43.36
64139;BME280;50435;43.700;-79.318;2024-01-15T02:40:54;100392.21;;;-4.94;43.02
64139;BME280;50435;43.700;-79.318;2024-01-15T02:43:22;100382.23;;;-5.67;43.14
64139;BME280;50435;43.700;-79.318;2024-01-15T02:45:49;100390.86;;;-4.95;42.42
64139;BME280;50435;43.700;-79.318;2024-01-15T02:48:17;100392.94;;;-5.23;42.61
64139;BME280;50435;43.700;-79.318;2024-01-15T02:50:45;100389.83;;;-5.07;42.74
64139;BME280;50435;43.700;-79.318;2024-01-15T02:53:12;100390.73;;;-4.87;42.78
64139;BME280;50435;43.700;-79.318;2024-01-15T02:55:40;100388.54;;;-4.87;42.62
64139;BME280;50435;43.700;-79.318;2024-01-15T02:58:08;100394.86;;;-5.03;42.48
64139;BME280;50435;43.700;-79.318;2024-01-15T03:00:35;100382.90;;;-5.30;42.83
64139;BME280;50435;43.700;-79.318;2024-01-15T03:03:03;100375.04;;;-5.09;42.92
64139;BME280;50435;43.700;-79.318;2024-01-15T03:05:30;100372.76;;;-5.29;42.54
64139;BME280;50435;43.700;-79.318;2024-01-15T03:07:58;100377.04;;;-5.02;42.92
64139;BME280;50435;43.700;-79.318;2024-01-15T03:10:25;100370.88;;;-5.36;42.14
64139;BME280;50435;43.700;-79.318;2024-01-15T03:12:53;100372.58;;;-4.88;42.31
64139;BME280;50435;43.700;-79.318;2024-01-15T03:15:20;100370.31;;;-6.44;42.54
64139;BME280;50435;43.700;-79.318;2024-01-15T03:17:48;100369.74;;;-5.19;42.49
64139;BME280;50435;43.700;-79.318;2024-01-15T03:20:16;100366.99;;;-5.33;42.46
64139;BME280;50435;43.700;-79.318;2024-01-15T03:22:43;100371.61;;;-5.40;42.85
64139;BME280;50435;43.700;-79.318;2024-01-15T03:25:11;100370.94;;;-5.31;42.72
64139;BME280;50435;43.700;-79.318;2024-01-15T03:27:39;100379.25;;;-5.57;42.22
64139;BME280;50435;43.700;-79.318;2024-01-15T03:30:07;100380.80;;;-5.16;42.58
64139;BME280;50435;43.700;-79.318;2024-01-15T03:32:35;100395.86;;;-5.51;41.77
64139;BME280;50435;43.700;-79.318;2024-01-15T03:35:03;100384.33;;;-5.11;41.43
64139;BME280;50435;43.700;-79.318;2024-01-15T03:37:30;100398.18;;;-5.71;42.41
64139;BME280;50435;43.700;-79.318;2024-01-15T03:39:58;100396.34;;;-5.10;42.48
64139;BME280;50435;43.700;-79.318;2024-01-15T03:42:26;100394.91;;;-5.55;42.25
64139;BME280;50435;43.700;-79.318;2024-01-15T03:44:53;100402.52;;;-5.13;42.11
64139;BME280;50435;43.700;-79.318;2024-01-15T03:47:20;100401.21;;;-6.66;42.37
64139;BME280;50435;43.700;-79.318;2024-01-15T03:49:49;100409.08;;;-5.51;41.91
64139;BME280;50435;43.700;-79.318;2024-01-15T03:52:17;100415.97;;;-5.47;42.71
64139;BME280;50435;43.700;-79.318;2024-01-15T03:54:44;100414.41;;;-5.08;41.69
64139;BME280;50435;43.700;-79.318;2024-01-15T03:57:12;100413.53;;;-5.43;41.98
64139;BME280;50435;43.700;-79.318;2024-01-15T03:59:41;100407.07;;;-5.95;42.47
64139;BME280;50435;43.700;-79.318;2024-01-15T04:02:08;100401.16;;;-5.73;42.50
64139;BME280;50435;43.700;-79.318;2024-01-15T04:04:35;100404.58;;;-5.57;42.94
64139;BME280;50435;43.700;-79.318;2024-01-15T04:07:03;100409.43;;;-5.86;42.19
64139;BME280;50435;43.700;-79.318;2024-01-15T04:09:31;100408.28;;;-5.88;42.58
64139;BME280;50435;43.700;-79.318;2024-01-15T04:11:58;100414.46;;;-5.68;42.59
64139;BME280;50435;43.700;-79.318;2024-01-15T04:14:25;100416.24;;;-5.61;42.74
64139;BME280;50435;43.700;-79.318;2024-01-15T04:16:54;100417.83;;;-5.77;42.74
64139;BME280;50435;43.700;-79.318;2024-01-15T04:19:22;100415.11;;;-6.35;42.62
64139;BME280;50435;43.700;-79.318;2024-01-15T04:21:49;100415.63;;;-5.81;42.57
64139;BME280;50435;43.700;-79.318;2024-01-15T04:24:16;100419.71;;;-5.74;42.28
64139;BME280;50435;43.700;-79.318;2024-01-15T04:26:44;100419.10;;;-5.80;43.01
64139;BME280;50435;43.700;-79.318;2024-01-15T04:29:12;100418.03;;;-5.80;42.48
64139;BME280;50435;43.700;-79.318;2024-01-15T04:31:39;100422.84;;;-6.15;43.18
64139;BME280;50435;43.700;-79.318;2024-01-15T04:34:07;100416.55;;;-5.39;42.62
64139;BME280;50435;43.700;-79.318;2024-01-15T04:36:39;100425.32;;;-5.71;42.20
64139;BME280;50435;43.700;-79.318;2024-01-15T04:39:07;100429.33;;;-5.55;42.51
64139;BME280;50435;43.700;-79.318;2024-01-15T04:41:34;100433.45;;;-5.66;42.14
64139;BME280;50435;43.700;-79.318;2024-01-15T04:44:02;100436.13;;;-5.63;42.43
64139;BME280;50435;43.700;-79.318;2024-01-15T04:46:30;100433.48;;;-6.09;42.43
64139;BME280;50435;43.700;-79.318;2024-01-15T04:48:57;100431.18;;;-5.46;42.46
64139;BME280;50435;43.700;-79.318;2024-01-15T04:51:25;100436.50;;;-6.25;42.19
64139;BME280;50435;43.700;-79.318;2024-01-15T04:53:52;100427.58;;;-5.92;42.62
64139;BME280;50435;43.700;-79.318;2024-01-15T04:56:20;100436.58;;;-6.89;42.76
64139;BME280;50435;43.700;-79.318;2024-01-15T04:58:48;100448.15;;;-5.80;42.01
64139;BME280;50435;43.700;-79.318;2024-01-15T05:01:16;100447.05;;;-6.02;42.74
64139;BME280;50435;43.700;-79.318;2024-01-15T05:03:43;100451.32;;;-5.89;42.58
64139;BME280;50435;43.700;-79.318;2024-01-15T05:06:11;100452.00;;;-5.69;42.44
64139;BME280;50435;43.700;-79.318;2024-01-15T05:08:39;100447.83;;;-5.70;42.48
64139;BME280;50435;43.700;-79.318;2024-01-15T05:11:06;100448.70;;;-6.17;42.89
64139;BME280;50435;43.700;-79.318;2024-01-15T05:13:34;100449.56;;;-6.12;42.84
64139;BME280;50435;43.700;-79.318;2024-01-15T05:16:01;100448.30;;;-5.71;42.06
64139;BME280;50435;43.700;-79.318;2024-01-15T05:18:29;100446.59;;;-6.20;42.62
64139;BME280;50435;43.700;-79.318;2024-01-15T05:20:57;100441.72;;;-6.12;42.64
64139;BME280;50435;43.700;-79.318;2024-01-15T05:23:25;100447.17;;;-6.48;43.01
64139;BME280;50435;43.700;-79.318;2024-01-15T05:25:52;100444.37;;;-6.11;42.70
64139;BME280;50435;43.700;-79.318;2024-01-15T05:28:20;100453.20;;;-6.80;42.73
64139;BME280;50435;43.700;-79.318;2024-01-15T05:30:47;100450.67;;;-6.14;42.95
64139;BME280;50435;43.700;-79.318;2024-01-15T05:33:15;100448.71;;;-5.73;42.13
64139;BME280;50435;43.700;-79.318;2024-01-15T05:35:43;100447.40;;;-6.27;43.04
64139;BME280;50435;43.700;-79.318;2024-01-15T05:38:10;100447.12;;;-6.03;43.13
64139;BME280;50435;43.700;-79.318;2024-01-15T05:40:38;100450.23;;;-6.05;42.59
64139;BME280;50435;43.700;-79.318;2024-01-15T05:43:05;100453.46;;;-5.99;42.74
64139;BME280;50435;43.700;-79.318;2024-01-15T05:45:35;100453.68;;;-6.41;42.80
64139;BME280;50435;43.700;-79.318;2024-01-15T05:48:02;100452.29;;;-6.20;42.63
64139;BME280;50435;43.700;-79.318;2024-01-15T05:50:30;100447.28;;;-6.43;42.74
64139;BME280;50435;43.700;-79.318;2024-01-15T05:52:57;100450.98;;;-6.37;43.06
64139;BME280;50435;43.700;-79.318;2024-01-15T05:55:25;100458.01;;;-6.05;42.66
64139;BME280;50435;43.700;-79.318;2024-01-15T05:57:53;100454.43;;;-6.21;42.94
64139;BME280;50435;43.700;-79.318;2024-01-15T06:00:21;100454.14;;;-7.45;42.72
64139;BME280;50435;43.700;-79.318;2024-01-15T06:02:49;100455.30;;;-5.89;42.44
64139;BME280;50435;43.700;-79.318;2024-01-15T06:05:16;100453.57;;;-6.04;42.69
64139;BME280;50435;43.700;-79.318;2024-01-15T06:07:44;100456.29;;;-6.03;42.85
64139;BME280;50435;43.700;-79.318;2024-01-15T06:10:12;100456.48;;;-6.07;42.63
64139;BME280;50435;43.700;-79.318;2024-01-15T06:12:39;100460.32;;;-6.13;42.64
64139;BME280;50435;43.700;-79.318;2024-01-15T06:15:08;100461.41;;;-6.13;42.93
64139;BME280;50435;43.700;-79.318;2024-01-15T06:17:36;100463.88;;;-5.89;42.50
64139;BME280;50435;43.700;-79.318;2024-01-15T06:20:04;100469.15;;;-5.69;41.89
64139;BME280;50435;43.700;-79.318;2024-01-15T06:22:32;100467.98;;;-6.55;42.58
64139;BME280;50435;43.700;-79.318;2024-01-15T06:25:00;100468.73;;;-6.45;42.81
64139;BME280;50435;43.700;-79.318;2024-01-15T06:27:27;100467.43;;;-6.48;43.05
64139;BME280;50435;43.700;-79.318;2024-01-15T06:29:55;100459.11;;;-6.24;42.97
64139;BME280;50435;43.700;-79.318;2024-01-15T06:32:23;100457.35;;;-6.90;42.56
64139;BME280;50435;43.700;-79.318;2024-01-15T06:34:50;100458.81;;;-6.10;42.71
64139;BME280;50435;43.700;-79.318;2024-01-15T06:37:18;100455.70;;;-6.71;42.88
64139;BME280;50435;43.700;-79.318;2024-01-15T06:39:46;100465.09;;;-6.29;42.75
64139;BME280;50435;43.700;-79.318;2024-01-15T06:42:13;100471.25;;;-6.59;42.40
64139;BME280;50435;43.700;-79.318;2024-01-15T06:44:41;100466.23;;;-6.54;42.89
64139;BME280;50435;43.700;-79.318;2024-01-15T06:47:08;100474.29;;;-5.74;42.16
64139;BME280;50435;43.700;-79.318;2024-01-15T06:49:36;100473.40;;;-5.89;42.63
64139;BME280;50435;43.700;-79.318;2024-01-15T06:52:04;100475.11;;;-6.18;42.15
64139;BME280;50435;43.700;-79.318;2024-01-15T06:54:32;100476.41;;;-6.35;42.86
64139;BME280;50435;43.700;-79.318;2024-01-15T06:57:00;100480.31;;;-5.74;42.66
64139;BME280;50435;43.700;-79.318;2024-01-15T06:59:28;100483.94;;;-6.30;42.57
64139;BME280;50435;43.700;-79.318;2024-01-15T07:01:55;100489.77;;;-6.27;42.90
64139;BME280;50435;43.700;-79.318;2024-01-15T07:04:23;100491.53;;;-6.93;42.66
64139;BME280;50435;43.700;-79.318;2024-01-15T07:06:50;100498.43;;;-6.13;42.34
64139;BME280;50435;43.700;-79.318;2024-01-15T07:09:17;100500.40;;;-6.45;42.42
64139;BME280;50435;43.700;-79.318;2024-01-15T07:11:45;100505.14;;;-6.32;42.67
64139;BME280;50435;43.700;-79.318;2024-01-15T07:14:13;100517.75;;;-5.87;42.45
64139;BME280;50435;43.700;-79.318;2024-01-15T07:16:40;100524.11;;;-6.32;41.98
64139;BME280;50435;43.700;-79.318;2024-01-15T07:19:08;100532.92;;;-5.86;41.95
64139;BME280;50435;43.700;-79.318;2024-01-15T07:21:36;100534.33;;;-6.16;42.84
64139;BME280;50435;43.700;-79.318;2024-01-15T07:24:04;100544.37;;;-6.13;42.90
64139;BME280;50435;43.700;-79.318;2024-01-15T07:26:32;100546.13;;;-6.31;42.49
64139;BME280;50435;43.700;-79.318;2024-01-15T07:29:00;100550.75;;;-6.34;42.66
64139;BME280;50435;43.700;-79.318;2024-01-15T07:31:27;100548.96;;;-6.47;42.88
64139;BME280;50435;43.700;-79.318;2024-01-15T07:33:55;100551.64;;;-6.10;43.06
64139;BME280;50435;43.700;-79.318;2024-01-15T07:36:23;100543.05;;;-6.78;42.27
64139;BME280;50435;43.700;-79.318;2024-01-15T07:38:51;100552.08;;;-5.99;42.19
64139;BME280;50435;43.700;-79.318;2024-01-15T07:41:18;100558.36;;;-6.92;42.77
64139;BME280;50435;43.700;-79.318;2024-01-15T07:43:46;100564.93;;;-6.17;42.73
64139;BME280;50435;43.700;-79.318;2024-01-15T07:46:13;100567.82;;;-5.79;42.40
64139;BME280;50435;43.700;-79.318;2024-01-15T07:48:41;100571.51;;;-6.13;42.45
64139;BME280;50435;43.700;-79.318;2024-01-15T07:51:08;100577.59;;;-5.94;42.40
64139;BME280;50435;43.700;-79.318;2024-01-15T07:53:36;100577.36;;;-5.88;42.33
64139;BME280;50435;43.700;-79.318;2024-01-15T07:56:04;100577.02;;;-5.57;42.20
64139;BME280;50435;43.700;-79.318;2024-01-15T07:58:31;100580.29;;;-5.80;42.24
64139;BME280;50435;43.700;-79.318;2024-01-15T08:00:59;100578.87;;;-5.60;42.09
64139;BME280;50435;43.700;-79.318;2024-01-15T08:03:27;100583.75;;;-6.07;42.66
64139;BME280;50435;43.700;-79.318;2024-01-15T08:05:55;100575.21;;;-5.56;42.37
64139;BME280;50435;43.700;-79.318;2024-01-15T08:08:22;100584.99;;;-6.81;42.51
64139;BME280;50435;43.700;-79.318;2024-01-15T08:10:49;100584.97;;;-5.91;42.41
64139;BME280;50435;43.700;-79.318;2024-01-15T08:13:17;100578.02;;;-6.04;42.49
64139;BME280;50435;43.700;-79.318;2024-01-15T08:15:44;100581.97;;;-5.84;42.28
64139;BME280;50435;43.700;-79.318;2024-01-15T08:18:12;100591.25;;;-5.58;42.32
64139;BME280;50435;43.700;-79.318;2024-01-15T08:20:40;100584.92;;;-5.81;42.05
64139;BME280;50435;43.700;-79.318;2024-01-15T08:23:07;100595.47;;;-6.08;41.31
64139;BME280;50435;43.700;-79.318;2024-01-15T08:25:36;100592.85;;;-6.10;41.78
64139;BME280;50435;43.700;-79.318;2024-01-15T08:28:04;100596.81;;;-5.72;42.07
64139;BME280;50435;43.700;-79.318;2024-01-15T08:30:32;100596.50;;;-6.14;42.33
64139;BME280;50435;43.700;-79.318;2024-01-15T08:33:00;100595.12;;;-5.64;42.12
64139;BME280;50435;43.700;-79.318;2024-01-15T08:35:27;100597.05;;;-6.52;41.98
64139;BME280;50435;43.700;-79.318;2024-01-15T08:37:54;100596.66;;;-5.58;42.25
64139;BME280;50435;43.700;-79.318;2024-01-15T08:40:22;100599.72;;;-6.42;42.05
64139;BME280;50435;43.700;-79.318;2024-01-15T08:42:50;100603.56;;;-5.75;41.91
64139;BME280;50435;43.700;-79.318;2024-01-15T08:45:17;100609.68;;;-6.26;41.88
64139;BME280;50435;43.700;-79.318;2024-01-15T08:47:45;100610.57;;;-5.99;41.94
64139;BME280;50435;43.700;-79.318;2024-01-15T08:50:13;100611.10;;;-5.72;41.67
64139;BME280;50435;43.700;-79.318;2024-01-15T08:52:40;100607.54;;;-5.78;41.99
64139;BME280;50435;43.700;-79.318;2024-01-15T08:55:08;100616.49;;;-5.79;41.42
64139;BME280;50435;43.700;-79.318;2024-01-15T08:57:35;100629.29;;;-6.13;41.93
64139;BME280;50435;43.700;-79.318;2024-01-15T09:00:04;100629.47;;;-6.17;42.17
64139;BME280;50435;43.700;-79.318;2024-01-15T09:02:31;100622.51;;;-5.79;41.74
64139;BME280;50435;43.700;-79.318;2024-01-15T09:04:59;100618.42;;;-5.93;42.28
64139;BME280;50435;43.700;-79.318;2024-01-15T09:07:27;100623.41;;;-6.65;42.00
64139;BME280;50435;43.700;-79.318;2024-01-15T09:09:54;100627.58;;;-6.02;41.98
64139;BME280;50435;43.700;-79.318;2024-01-15T09:12:22;100623.61;;;-7.10;41.92
64139;BME280;50435;43.700;-79.318;2024-01-15T09:14:49;100626.67;;;-5.95;41.82
64139;BME280;50435;43.700;-79.318;2024-01-15T09:17:17;100633.37;;;-5.97;41.90
64139;BME280;50435;43.700;-79.318;2024-01-15T09:19:45;100631.33;;;-5.98;42.07
64139;BME280;50435;43.700;-79.318;2024-01-15T09:22:13;100633.89;;;-6.18;42.20
64139;BME280;50435;43.700;-79.318;2024-01-15T09:24:40;100629.98;;;-6.63;41.87
64139;BME280;50435;43.700;-79.318;2024-01-15T09:27:08;100634.52;;;-5.93;41.78
64139;BME280;50435;43.700;-79.318;2024-01-15T09:29:36;100632.85;;;-6.44;42.41
64139;BME280;50435;43.700;-79.318;2024-01-15T09:32:04;100633.74;;;-6.24;42.19
64139;BME280;50435;43.700;-79.318;2024-01-15T09:34:31;100638.01;;;-6.77;42.26
64139;BME280;50435;43.700;-79.318;2024-01-15T09:36:59;100638.26;;;-6.18;42.06
64139;BME280;50435;43.700;-79.318;2024-01-15T09:39:27;100637.77;;;-6.68;41.96
64139;BME280;50435;43.700;-79.318;2024-01-15T09:41:55;100636.26;;;-6.34;42.03
64139;BME280;50435;43.700;-79.318;2024-01-15T09:44:23;100635.22;;;-7.29;41.81
64139;BME280;50435;43.700;-79.318;2024-01-15T09:46:52;100639.28;;;-6.17;41.97
64139;BME280;50435;43.700;-79.318;2024-01-15T09:49:20;100644.02;;;-7.46;42.39
64139;BME280;50435;43.700;-79.318;2024-01-15T09:51:47;100640.02;;;-6.39;41.84
64139;BME280;50435;43.700;-79.318;2024-01-15T09:54:16;100644.80;;;-6.57;42.26
64139;BME280;50435;43.700;-79.318;2024-01-15T09:56:45;100645.92;;;-6.44;42.17
64139;BME280;50435;43.700;-79.318;2024-01-15T09:59:15;100641.49;;;-6.33;42.16
64139;BME280;50435;43.700;-79.318;2024-01-15T10:01:44;100647.67;;;-6.88;42.17
64139;BME280;50435;43.700;-79.318;2024-01-15T10:04:12;100641.53;;;-6.28;41.89
64139;BME280;50435;43.700;-79.318;2024-01-15T10:06:39;100639.44;;;-6.78;42.05
64139;BME280;50435;43.700;-79.318;2024-01-15T10:09:12;100639.74;;;-6.57;42.17
64139;BME280;50435;43.700;-79.318;2024-01-15T10:11:41;100643.69;;;-6.67;42.11
64139;BME280;50435;43.700;-79.318;2024-01-15T10:14:09;100643.52;;;-6.63;41.87
64139;BME280;50435;43.700;-79.318;2024-01-15T10:16:37;100641.81;;;-6.52;41.90
64139;BME280;50435;43.700;-79.318;2024-01-15T10:19:05;100646.89;;;-6.61;42.05
64139;BME280;50435;43.700;-79.318;2024-01-15T10:21:33;100649.58;;;-6.74;42.07
64139;BME280;50435;43.700;-79.318;2024-01-15T10:24:00;100653.21;;;-6.61;41.99
64139;BME280;50435;43.700;-79.318;2024-01-15T10:26:28;100651.16;;;-6.78;41.77
64139;BME280;50435;43.700;-79.318;2024-01-15T10:28:56;100656.66;;;-6.40;42.04
64139;BME280;50435;43.700;-79.318;2024-01-15T10:31:25;100657.79;;;-7.10;41.84
64139;BME280;50435;43.700;-79.318;2024-01-15T10:33:53;100654.58;;;-6.58;41.92
64139;BME280;50435;43.700;-79.318;2024-01-15T10:36:20;100662.93;;;-7.53;42.43
64139;BME280;50435;43.700;-79.318;2024-01-15T10:38:47;100662.75;;;-6.56;42.22
64139;BME280;50435;43.700;-79.318;2024-01-15T10:41:15;100656.69;;;-6.49;42.09
64139;BME280;50435;43.700;-79.318;2024-01-15T10:43:43;100653.11;;;-6.66;42.00
64139;BME280;50435;43.700;-79.318;2024-01-15T10:46:11;100653.80;;;-6.32;41.72
64139;BME280;50435;43.700;-79.318;2024-01-15T10:48:39;100666.84;;;-6.49;41.72
64139;BME280;50435;43.700;-79.318;2024-01-15T10:51:07;100659.87;;;-6.51;41.90
64139;BME280;50435;43.700;-79.318;2024-01-15T10:53:36;100661.52;;;-6.85;42.07
64139;BME280;50435;43.700;-79.318;2024-01-15T10:56:06;100659.57;;;-6.61;41.66
64139;BME280;50435;43.700;-79.318;2024-01-15T10:58:34;100658.58;;;-6.74;41.95
64139;BME280;50435;43.700;-79.318;2024-01-15T11:01:01;100650.13;;;-6.38;41.81
64139;BME280;50435;43.700;-79.318;2024-01-15T11:03:29;100655.48;;;-6.57;41.69
64139;BME280;50435;43.700;-79.318;2024-01-15T11:05:57;100659.90;;;-6.51;41.81
64139;BME280;50435;43.700;-79.318;2024-01-15T11:08:25;100664.77;;;-7.54;42.17
64139;BME280;50435;43.700;-79.318;2024-01-15T11:10:53;100662.36;;;-6.52;42.09
64139;BME280;50435;43.700;-79.318;2024-01-15T11:13:22;100658.97;;;-6.56;41.95
64139;BME280;50435;43.700;-79.318;2024-01-15T11:15:58;100672.92;;;-6.84;42.20
64139;BME280;50435;43.700;-79.318;2024-01-15T11:18:27;100671.02;;;-6.83;42.05
64139;BME280;50435;43.700;-79.318;2024-01-15T11:21:24;100668.34;;;-6.72;41.90
64139;BME280;50435;43.700;-79.318;2024-01-15T11:23:53;100670.54;;;-6.66;42.27
64139;BME280;50435;43.700;-79.318;2024-01-15T11:26:38;100675.07;;;-7.74;42.03
64139;BME280;50435;43.700;-79.318;2024-01-15T11:29:29;100663.24;;;-6.37;41.70
64139;BME280;50435;43.700;-79.318;2024-01-15T11:31:58;100669.66;;;-6.63;41.87
64139;BME280;50435;43.700;-79.318;2024-01-15T11:34:59;100674.56;;;-7.06;41.87
64139;BME280;50435;43.700;-79.318;2024-01-15T11:37:28;100667.71;;;-6.77;41.89
64139;BME280;50435;43.700;-79.318;2024-01-15T11:40:01;100673.16;;;-6.58;41.66
64139;BME280;50435;43.700;-79.318;2024-01-15T11:42:30;100663.34;;;-6.78;41.75
64139;BME280;50435;43.700;-79.318;2024-01-15T11:44:57;100661.55;;;-6.53;41.71
64139;BME280;50435;43.700;-79.318;2024-01-15T11:47:57;100667.82;;;-6.71;41.75
64139;BME280;50435;43.700;-79.318;2024-01-15T11:50:33;100667.06;;;-7.00;41.71
64139;BME280;50435;43.700;-79.318;2024-01-15T11:53:02;100664.36;;;-6.55;41.60
64139;BME280;50435;43.700;-79.318;2024-01-15T11:55:34;100671.76;;;-7.21;41.42
64139;BME280;50435;43.700;-79.318;2024-01-15T11:58:08;100669.62;;;-7.18;42.09
64139;BME280;50435;43.700;-79.318;2024-01-15T12:00:39;100668.80;;;-6.98;41.79
64139;BME280;50435;43.700;-79.318;2024-01-15T12:03:09;100670.88;;;-6.75;41.44
64139;BME280;50435;43.700;-79.318;2024-01-15T12:05:38;100678.42;;;-6.72;41.75
64139;BME280;50435;43.700;-79.318;2024-01-15T12:08:06;100684.37;;;-6.62;41.66
64139;BME280;50435;43.700;-79.318;2024-01-15T12:10:34;100686.54;;;-7.02;42.11
64139;BME280;50435;43.700;-79.318;2024-01-15T12:13:05;100688.72;;;-6.94;42.15
64139;BME280;50435;43.700;-79.318;2024-01-15T12:15:33;100691.30;;;-6.94;41.85
64139;BME280;50435;43.700;-79.318;2024-01-15T12:18:01;100686.49;;;-7.05;42.24
64139;BME280;50435;43.700;-79.318;2024-01-15T12:20:30;100691.40;;;-6.72;41.89
64139;BME280;50435;43.700;-79.318;2024-01-15T12:22:58;100684.74;;;-6.56;41.55
64139;BME280;50435;43.700;-79.318;2024-01-15T12:25:26;100687.19;;;-6.95;41.44
64139;BME280;50435;43.700;-79.318;2024-01-15T12:27:54;100683.92;;;-6.75;41.55
64139;BME280;50435;43.700;-79.318;2024-01-15T12:30:22;100686.55;;;-7.60;41.59
64139;BME280;50435;43.700;-79.318;2024-01-15T12:32:50;100686.21;;;-6.15;41.16
64139;BME280;50435;43.700;-79.318;2024-01-15T12:35:18;100689.54;;;-6.88;41.79